Time;durP1;ratioP1;P1;durP2;ratioP2;P2;SDS_P1;SDS_P2;PMS_P1;PMS_P2;Temp;Humidity;BMP_temperature;BMP_pressure;BME280_temperature;BME280_humidity;BME280_pressure;Samples;Min_cycle;Max_cycle;Signal;HPM_P1;HPM_P2
2022/05/04 00:00:01;;;;;;;11.48;3.50;;;;;;;;;;5064016;28;20127;-81
2022/05/04 00:02:27;;;;;;;7.05;3.38;;;;;;;;;;5082640;28;20048;-81
2022/05/04 00:04:53;;;;;;;9.95;3.22;;;;;;;;;;5085861;28;20038;-81
2022/05/04 00:07:19;;;;;;;10.30;3.58;;;;;;;;;;5071970;28;20059;-81
2022/05/04 00:09:45;;;;;;;9.38;3.42;;;;;;;;;;5050261;28;20055;-81
2022/05/04 00:12:11;;;;;;;12.23;3.33;;;;;;;;;;5078094;28;20062;-81
2022/05/04 00:14:37;;;;;;;9.77;3.55;;;;;;;;;;5067344;28;20108;-81
2022/05/04 00:17:03;;;;;;;17.60;3.90;;;;;;;;;;5067000;28;20063;-81
2022/05/04 00:19:29;;;;;;;9.15;3.60;;;;;;;;;;5050396;28;20374;-81
2022/05/04 00:21:55;;;;;;;8.90;3.55;;;;;;;;;;5067272;28;20043;-81
2022/05/04 00:24:21;;;;;;;13.35;3.55;;;;;;;;;;5079278;28;20119;-81
2022/05/04 00:26:48;;;;;;;7.75;3.17;;;;;;;;;;5078914;28;20143;-81
2022/05/04 00:29:14;;;;;;;7.45;3.33;;;;;;;;;;5071178;28;20690;-81
2022/05/04 00:31:40;;;;;;;10.65;3.45;;;;;;;;;;5067341;28;20427;-81
2022/05/04 00:34:07;;;;;;;9.57;3.38;;;;;;;;;;5048142;28;20048;-81
2022/05/04 00:36:33;;;;;;;12.30;3.17;;;;;;;;;;5066715;28;20040;-81
2022/05/04 00:38:59;;;;;;;10.82;3.50;;;;;;;;;;5066808;28;20482;-81
2022/05/04 00:41:25;;;;;;;9.90;3.65;;;;;;;;;;5049647;28;20039;-81
2022/05/04 00:43:52;;;;;;;11.93;3.78;;;;;;;;;;5080665;28;20449;-81
2022/05/04 00:46:18;;;;;;;13.27;3.55;;;;;;;;;;5086754;28;20047;-81
2022/05/04 00:48:44;;;;;;;14.30;3.47;;;;;;;;;;5082674;28;20047;-81
2022/05/04 00:51:11;;;;;;;11.60;4.18;;;;;;;;;;5070882;28;20059;-81
2022/05/04 00:53:38;;;;;;;12.07;3.53;;;;;;;;;;5065546;28;20122;-81
2022/05/04 00:56:05;;;;;;;9.15;2.85;;;;;;;;;;5050550;28;20045;-81
2022/05/04 01:01:16;;;;;;;10.75;3.90;;;;;;;;;;5082118;28;20036;-81
2022/05/04 01:03:42;;;;;;;13.05;4.10;;;;;;;;;;5051294;28;20123;-81
2022/05/04 01:06:08;;;;;;;8.52;3.40;;;;;;;;;;5086926;28;20044;-81
2022/05/04 01:08:34;;;;;;;12.50;3.50;;;;;;;;;;5054949;28;20080;-81
2022/05/04 01:11:01;;;;;;;13.20;3.60;;;;;;;;;;5064452;28;20097;-81
2022/05/04 01:13:27;;;;;;;9.27;3.42;;;;;;;;;;5073111;28;20051;-81
2022/05/04 01:15:53;;;;;;;13.65;3.40;;;;;;;;;;5079648;28;20479;-81
2022/05/04 01:18:20;;;;;;;11.10;3.28;;;;;;;;;;5070210;28;20090;-81
2022/05/04 01:20:46;;;;;;;6.78;2.70;;;;;;;;;;5072798;28;20118;-81
2022/05/04 01:23:12;;;;;;;11.48;3.58;;;;;;;;;;5070123;28;20040;-81
2022/05/04 01:25:38;;;;;;;12.38;3.53;;;;;;;;;;5079127;28;20115;-81
2022/05/04 01:28:05;;;;;;;13.48;3.60;;;;;;;;;;5084896;28;20070;-81
2022/05/04 01:30:32;;;;;;;11.50;3.50;;;;;;;;;;5066450;28;20045;-81
2022/05/04 01:32:59;;;;;;;10.02;2.97;;;;;;;;;;5071132;28;20046;-81
2022/05/04 01:35:26;;;;;;;10.65;3.30;;;;;;;;;;5066928;28;20127;-81
2022/05/04 01:37:52;;;;;;;8.57;3.00;;;;;;;;;;5084961;28;20039;-81
2022/05/04 01:40:18;;;;;;;9.90;2.67;;;;;;;;;;5050146;28;20056;-81
2022/05/04 01:42:44;;;;;;;9.38;3.15;;;;;;;;;;5071237;28;20043;-82
2022/05/04 01:45:11;;;;;;;13.27;3.05;;;;;;;;;;5033139;28;20440;-81
2022/05/04 01:47:38;;;;;;;9.75;3.33;;;;;;;;;;5051247;28;20469;-81
2022/05/04 01:50:04;;;;;;;10.68;3.70;;;;;;;;;;5067048;28;20045;-81
2022/05/04 01:52:31;;;;;;;5.85;2.67;;;;;;;;;;5067065;28;20032;-81
2022/05/04 01:54:57;;;;;;;10.10;3.00;;;;;;;;;;5074515;28;20032;-81
2022/05/04 01:57:23;;;;;;;9.45;2.95;;;;;;;;;;5070439;28;20032;-81
2022/05/04 01:59:49;;;;;;;9.38;3.10;;;;;;;;;;5052165;28;20048;-81
2022/05/04 02:02:15;;;;;;;9.25;3.10;;;;;;;;;;5067137;28;20044;-81
2022/05/04 02:04:41;;;;;;;7.90;2.88;;;;;;;;;;5069140;28;20534;-81
2022/05/04 02:07:08;;;;;;;10.23;3.10;;;;;;;;;;5081708;28;20087;-81
2022/05/04 02:09:36;;;;;;;15.10;3.20;;;;;;;;;;5069440;28;20036;-81
2022/05/04 02:12:02;;;;;;;9.73;3.90;;;;;;;;;;5069635;28;20041;-81
2022/05/04 02:14:28;;;;;;;14.27;3.70;;;;;;;;;;5069297;28;20043;-81
2022/05/04 02:16:54;;;;;;;8.60;3.33;;;;;;;;;;5089247;28;20049;-81
2022/05/04 02:19:20;;;;;;;12.02;3.20;;;;;;;;;;5087799;28;20483;-81
2022/05/04 02:21:46;;;;;;;8.35;3.00;;;;;;;;;;5053071;28;20426;-81
2022/05/04 02:24:13;;;;;;;15.68;3.47;;;;;;;;;;5069455;28;20036;-81
2022/05/04 02:26:39;;;;;;;10.32;3.33;;;;;;;;;;5083352;28;20073;-83
2022/05/04 02:29:05;;;;;;;10.82;3.85;;;;;;;;;;5075448;28;20041;-83
2022/05/04 02:31:31;;;;;;;10.20;3.83;;;;;;;;;;5085294;28;20040;-83
2022/05/04 02:33:57;;;;;;;12.13;3.70;;;;;;;;;;5099083;28;20028;-83
2022/05/04 02:39:07;;;;;;;12.57;3.72;;;;;;;;;;5091707;28;20049;-83
2022/05/04 02:41:34;;;;;;;10.80;3.17;;;;;;;;;;5063641;28;20488;-83
2022/05/04 02:44:03;;;;;;;10.23;3.20;;;;;;;;;;5053579;28;20082;-83
2022/05/04 02:46:30;;;;;;;11.90;3.58;;;;;;;;;;5061931;28;20048;-84
2022/05/04 02:48:56;;;;;;;10.50;3.60;;;;;;;;;;5079857;28;20047;-83
2022/05/04 02:51:22;;;;;;;9.32;3.47;;;;;;;;;;5079557;28;20036;-83
2022/05/04 02:53:48;;;;;;;9.60;3.30;;;;;;;;;;5094841;28;20067;-83
2022/05/04 02:56:15;;;;;;;9.90;3.45;;;;;;;;;;5077670;28;20172;-83
2022/05/04 02:58:42;;;;;;;10.35;3.60;;;;;;;;;;5088137;28;20047;-83
2022/05/04 03:02:26;;;;;;;11.45;3.97;;;;;;;;;;5084169;28;20050;-83
2022/05/04 03:03:54;;;;;;;10.48;3.65;;;;;;;;;;5079723;28;20066;-83
2022/05/04 03:06:20;;;;;;;11.77;4.28;;;;;;;;;;5077000;28;20050;-83
2022/05/04 03:08:46;;;;;;;15.30;4.15;;;;;;;;;;5083789;28;20039;-83
2022/05/04 03:13:57;;;;;;;10.07;3.80;;;;;;;;;;5085326;28;20093;-83
2022/05/04 03:16:23;;;;;;;10.50;3.85;;;;;;;;;;5069472;28;20044;-83
2022/05/04 03:18:49;;;;;;;9.32;3.47;;;;;;;;;;5038197;28;20107;-83
2022/05/04 03:21:15;;;;;;;14.35;3.63;;;;;;;;;;5076486;28;20532;-83
2022/05/04 03:23:41;;;;;;;11.85;3.65;;;;;;;;;;5073586;28;20492;-83
2022/05/04 03:26:10;;;;;;;12.63;4.22;;;;;;;;;;5074628;28;20480;-83
2022/05/04 03:28:36;;;;;;;13.68;4.00;;;;;;;;;;5073571;28;20041;-83
2022/05/04 03:31:03;;;;;;;11.30;4.25;;;;;;;;;;5070831;28;20462;-83
2022/05/04 03:33:29;;;;;;;12.27;3.70;;;;;;;;;;5052041;28;20094;-83
2022/05/04 03:35:55;;;;;;;13.05;4.25;;;;;;;;;;5059197;28;20040;-83
2022/05/04 03:38:21;;;;;;;10.10;3.90;;;;;;;;;;5074145;28;20089;-83
2022/05/04 03:40:47;;;;;;;14.57;3.75;;;;;;;;;;5063315;28;20126;-83
2022/05/04 03:43:13;;;;;;;13.02;4.07;;;;;;;;;;5083505;28;20049;-83
2022/05/04 03:45:39;;;;;;;10.18;3.50;;;;;;;;;;5067566;28;20044;-83
2022/05/04 03:48:05;;;;;;;8.45;3.55;;;;;;;;;;5072423;28;20388;-83
2022/05/04 03:50:31;;;;;;;11.70;3.97;;;;;;;;;;5054992;28;20119;-83
2022/05/04 03:52:57;;;;;;;11.55;4.00;;;;;;;;;;5061841;28;20659;-83
2022/05/04 03:55:23;;;;;;;11.82;4.50;;;;;;;;;;5058921;28;20044;-83
2022/05/04 03:57:50;;;;;;;12.63;3.40;;;;;;;;;;5073484;28;20450;-83
2022/05/04 04:00:16;;;;;;;9.70;3.25;;;;;;;;;;5081806;28;20040;-83
2022/05/04 04:02:43;;;;;;;11.20;3.63;;;;;;;;;;5072776;28;20040;-83
2022/05/04 04:05:09;;;;;;;11.35;3.08;;;;;;;;;;5080619;28;20411;-83
2022/05/04 04:07:35;;;;;;;9.63;3.22;;;;;;;;;;5063439;28;20042;-83
2022/05/04 04:10:01;;;;;;;7.40;2.78;;;;;;;;;;5054435;28;20044;-84
2022/05/04 04:12:27;;;;;;;9.88;2.90;;;;;;;;;;5057661;28;20040;-83
2022/05/04 04:14:54;;;;;;;8.50;2.45;;;;;;;;;;5082749;28;20072;-83
2022/05/04 04:17:20;;;;;;;10.43;2.63;;;;;;;;;;5059432;28;20040;-83
2022/05/04 04:21:50;;;;;;;7.95;2.72;;;;;;;;;;5079633;28;20089;-83
2022/05/04 04:22:32;;;;;;;10.40;3.15;;;;;;;;;;5060564;28;20044;-84
2022/05/04 04:24:58;;;;;;;10.48;2.95;;;;;;;;;;5077364;28;20051;-83
2022/05/04 04:27:24;;;;;;;10.77;2.70;;;;;;;;;;5085659;28;20487;-83
2022/05/04 04:29:50;;;;;;;10.48;3.05;;;;;;;;;;5058727;28;20412;-83
2022/05/04 04:32:16;;;;;;;7.85;2.10;;;;;;;;;;5050349;28;20036;-83
2022/05/04 04:34:42;;;;;;;8.25;2.55;;;;;;;;;;5076061;28;20043;-83
2022/05/04 04:37:08;;;;;;;8.27;2.47;;;;;;;;;;5082129;28;20040;-83
2022/05/04 04:39:34;;;;;;;13.38;2.97;;;;;;;;;;5052131;28;20522;-83
2022/05/04 04:42:00;;;;;;;10.32;3.03;;;;;;;;;;5071959;28;20049;-83
2022/05/04 04:44:26;;;;;;;12.02;2.95;;;;;;;;;;5086621;28;20071;-83
2022/05/04 04:46:54;;;;;;;11.32;2.80;;;;;;;;;;5076249;28;20039;-83
2022/05/04 04:49:20;;;;;;;9.85;2.95;;;;;;;;;;5072647;28;20041;-83
2022/05/04 04:51:46;;;;;;;6.45;3.00;;;;;;;;;;5078631;28;20032;-83
2022/05/04 04:54:12;;;;;;;8.68;3.03;;;;;;;;;;5060971;28;20032;-83
2022/05/04 04:56:38;;;;;;;13.80;3.40;;;;;;;;;;5067420;28;20492;-84
2022/05/04 04:59:04;;;;;;;10.93;3.10;;;;;;;;;;5071703;28;20483;-84
2022/05/04 05:01:30;;;;;;;7.53;2.90;;;;;;;;;;5072453;28;20098;-84
2022/05/04 05:03:56;;;;;;;9.75;3.25;;;;;;;;;;5087096;28;20119;-84
2022/05/04 05:06:24;;;;;;;10.23;2.50;;;;;;;;;;5067339;28;20041;-82
2022/05/04 05:08:50;;;;;;;8.43;2.40;;;;;;;;;;5065371;28;20046;-82
2022/05/04 05:11:16;;;;;;;9.98;2.70;;;;;;;;;;5064464;28;20036;-82
2022/05/04 05:16:27;;;;;;;11.18;2.50;;;;;;;;;;5059077;28;20048;-82
2022/05/04 05:18:53;;;;;;;13.77;2.80;;;;;;;;;;5077277;28;20059;-82
2022/05/04 05:21:19;;;;;;;9.90;2.63;;;;;;;;;;5073252;28;20475;-83
2022/05/04 05:23:45;;;;;;;10.43;2.95;;;;;;;;;;5056601;28;20086;-83
2022/05/04 05:26:11;;;;;;;10.45;2.40;;;;;;;;;;5077230;28;20052;-83
2022/05/04 05:28:38;;;;;;;8.88;2.53;;;;;;;;;;5062348;28;20036;-83
2022/05/04 05:31:04;;;;;;;11.68;2.90;;;;;;;;;;5078699;28;20497;-83
2022/05/04 05:33:30;;;;;;;9.68;2.83;;;;;;;;;;5076497;28;20048;-83
2022/05/04 05:35:56;;;;;;;11.93;2.72;;;;;;;;;;5070824;28;20036;-83
2022/05/04 05:38:22;;;;;;;7.57;2.40;;;;;;;;;;5075775;28;20079;-83
2022/05/04 05:40:48;;;;;;;10.85;2.55;;;;;;;;;;5078836;28;20557;-83
2022/05/04 05:43:14;;;;;;;10.55;2.20;;;;;;;;;;5063193;28;20056;-83
2022/05/04 05:45:41;;;;;;;8.30;2.40;;;;;;;;;;5070369;28;20476;-82
2022/05/04 05:48:07;;;;;;;5.60;2.03;;;;;;;;;;5056309;28;20071;-83
2022/05/04 05:50:34;;;;;;;10.20;2.30;;;;;;;;;;5072969;28;20040;-83
2022/05/04 05:53:00;;;;;;;9.95;2.45;;;;;;;;;;5079199;28;20059;-83
2022/05/04 05:55:26;;;;;;;9.27;3.00;;;;;;;;;;5069796;28;20040;-82
2022/05/04 05:57:52;;;;;;;9.10;2.90;;;;;;;;;;5069924;28;20040;-82
2022/05/04 06:00:18;;;;;;;9.43;2.70;;;;;;;;;;5072739;28;20029;-82
2022/05/04 06:02:47;;;;;;;7.95;2.55;;;;;;;;;;5067505;28;20035;-82
2022/05/04 06:05:13;;;;;;;12.50;2.88;;;;;;;;;;5062858;28;20098;-82
2022/05/04 06:07:40;;;;;;;9.85;2.75;;;;;;;;;;5054474;28;20390;-82
2022/05/04 06:10:06;;;;;;;8.20;2.85;;;;;;;;;;5066321;28;20046;-83
2022/05/04 06:12:32;;;;;;;6.38;2.10;;;;;;;;;;5071513;28;20036;-82
2022/05/04 06:14:58;;;;;;;9.98;2.45;;;;;;;;;;5067809;28;20044;-82
2022/05/04 06:17:24;;;;;;;9.18;2.55;;;;;;;;;;5073293;28;20377;-82
2022/05/04 06:19:50;;;;;;;7.55;2.75;;;;;;;;;;5070789;28;20082;-82
2022/05/04 06:22:17;;;;;;;8.77;2.20;;;;;;;;;;5064854;28;20048;-82
2022/05/04 06:24:43;;;;;;;8.93;2.28;;;;;;;;;;5069185;28;20037;-81
2022/05/04 06:27:09;;;;;;;7.63;2.45;;;;;;;;;;5052743;28;20090;-81
2022/05/04 06:35:05;;;;;;;9.73;2.17;;;;;;;;;;5094833;28;20527;-82
2022/05/04 06:37:31;;;;;;;7.45;2.47;;;;;;;;;;5051796;28;20147;-82
2022/05/04 06:39:57;;;;;;;12.32;3.22;;;;;;;;;;5068778;28;20068;-82
2022/05/04 06:42:23;;;;;;;8.95;2.70;;;;;;;;;;5060575;28;20496;-82
2022/05/04 06:44:49;;;;;;;11.65;2.80;;;;;;;;;;5071909;28;20036;-82
2022/05/04 06:47:15;;;;;;;8.48;2.33;;;;;;;;;;5068723;28;20036;-82
2022/05/04 06:49:43;;;;;;;9.82;2.70;;;;;;;;;;5075184;28;20040;-82
2022/05/04 06:52:09;;;;;;;10.98;2.30;;;;;;;;;;5075143;28;20136;-82
2022/05/04 06:54:37;;;;;;;10.27;2.35;;;;;;;;;;5078748;28;20032;-83
2022/05/04 06:57:03;;;;;;;11.23;2.70;;;;;;;;;;5087443;28;20072;-83
2022/05/04 06:59:29;;;;;;;7.93;2.60;;;;;;;;;;5077612;28;20085;-82
2022/05/04 07:01:56;;;;;;;6.63;2.10;;;;;;;;;;5045240;28;20032;-83
2022/05/04 07:04:22;;;;;;;8.95;2.00;;;;;;;;;;5085568;28;20058;-83
2022/05/04 07:06:49;;;;;;;6.75;1.90;;;;;;;;;;5060063;28;20131;-83
2022/05/04 07:09:15;;;;;;;7.15;2.30;;;;;;;;;;5062249;28;20131;-83
2022/05/04 07:11:41;;;;;;;8.32;2.33;;;;;;;;;;5053153;28;20040;-83
2022/05/04 07:14:07;;;;;;;5.90;1.80;;;;;;;;;;5083095;28;20101;-83
2022/05/04 07:16:33;;;;;;;10.48;2.20;;;;;;;;;;5070583;28;20123;-83
2022/05/04 07:18:59;;;;;;;8.15;1.77;;;;;;;;;;5059957;28;20050;-83
2022/05/04 07:21:25;;;;;;;13.15;2.28;;;;;;;;;;5063457;28;20063;-82
2022/05/04 07:23:51;;;;;;;7.70;1.90;;;;;;;;;;5072286;28;20032;-83
2022/05/04 07:26:17;;;;;;;6.95;1.90;;;;;;;;;;5072072;28;20040;-83
2022/05/04 07:28:43;;;;;;;9.95;2.05;;;;;;;;;;5086538;28;20331;-83
2022/05/04 07:31:09;;;;;;;9.18;2.10;;;;;;;;;;5076662;28;20472;-84
2022/05/04 07:33:36;;;;;;;7.70;2.20;;;;;;;;;;5056422;28;20408;-83
2022/05/04 07:36:02;;;;;;;7.32;2.30;;;;;;;;;;5073097;28;20083;-82
2022/05/04 07:38:28;;;;;;;9.95;2.40;;;;;;;;;;5057099;28;20064;-82
2022/05/04 07:43:39;;;;;;;10.30;2.30;;;;;;;;;;5081557;28;20047;-82
2022/05/04 07:46:05;;;;;;;10.57;2.20;;;;;;;;;;5076507;28;20048;-83
2022/05/04 07:48:32;;;;;;;8.02;2.20;;;;;;;;;;5056026;28;20052;-83
2022/05/04 07:50:58;;;;;;;7.78;2.47;;;;;;;;;;5081220;28;20048;-82
2022/05/04 07:53:24;;;;;;;9.55;2.25;;;;;;;;;;5084392;28;20108;-82
2022/05/04 07:55:50;;;;;;;10.15;2.03;;;;;;;;;;5086200;28;20479;-82
2022/05/04 07:58:16;;;;;;;6.72;1.88;;;;;;;;;;5052511;28;20040;-82
2022/05/04 08:06:12;;;;;;;8.10;2.00;;;;;;;;;;5088609;28;20052;-82
2022/05/04 08:08:38;;;;;;;6.65;1.90;;;;;;;;;;5077986;28;20240;-82
2022/05/04 08:11:05;;;;;;;6.82;2.08;;;;;;;;;;5069329;28;20120;-83
2022/05/04 08:13:31;;;;;;;8.70;2.03;;;;;;;;;;5069314;28;20052;-84
2022/05/04 08:15:57;;;;;;;8.27;1.92;;;;;;;;;;5067609;28;20072;-83
2022/05/04 08:18:25;;;;;;;9.75;2.17;;;;;;;;;;5081588;28;20139;-82
2022/05/04 08:20:51;;;;;;;6.82;1.92;;;;;;;;;;5072904;28;20043;-82
2022/05/04 08:23:17;;;;;;;7.20;2.00;;;;;;;;;;5080561;28;20174;-82
2022/05/04 08:25:46;;;;;;;8.60;2.17;;;;;;;;;;5052325;28;20040;-82
2022/05/04 08:28:15;;;;;;;7.13;2.17;;;;;;;;;;5051059;28;20377;-83
2022/05/04 08:30:41;;;;;;;5.57;1.98;;;;;;;;;;5071016;28;20042;-82
2022/05/04 08:33:07;;;;;;;6.07;1.98;;;;;;;;;;5046066;28;20404;-82
2022/05/04 08:35:33;;;;;;;8.68;2.35;;;;;;;;;;5072444;28;20275;-82
2022/05/04 08:38:00;;;;;;;7.32;2.10;;;;;;;;;;5066195;28;20048;-82
2022/05/04 08:40:26;;;;;;;6.00;1.98;;;;;;;;;;5060657;28;20058;-80
2022/05/04 08:42:53;;;;;;;7.05;2.20;;;;;;;;;;5079332;28;20535;-80
2022/05/04 08:45:20;;;;;;;6.47;2.30;;;;;;;;;;5100126;28;20036;-80
2022/05/04 08:47:46;;;;;;;7.05;1.90;;;;;;;;;;5049765;28;20106;-81
2022/05/04 08:50:13;;;;;;;5.63;2.10;;;;;;;;;;5055226;28;20040;-81
2022/05/04 08:52:40;;;;;;;6.35;2.08;;;;;;;;;;5069264;28;20037;-80
2022/05/04 08:55:07;;;;;;;8.10;2.17;;;;;;;;;;5085177;28;20483;-80
2022/05/04 08:57:33;;;;;;;10.00;2.40;;;;;;;;;;5076091;28;20071;-79
2022/05/04 08:59:59;;;;;;;9.18;2.40;;;;;;;;;;5065576;28;20036;-81
2022/05/04 09:02:25;;;;;;;10.20;2.40;;;;;;;;;;5049065;28;20044;-81
2022/05/04 09:04:51;;;;;;;5.65;1.77;;;;;;;;;;5060838;28;20136;-81
2022/05/04 09:07:24;;;;;;;9.13;2.28;;;;;;;;;;5067098;28;20478;-82
2022/05/04 09:09:54;;;;;;;5.95;2.08;;;;;;;;;;5077262;28;20036;-82
2022/05/04 09:12:20;;;;;;;9.70;2.22;;;;;;;;;;5078447;28;20032;-82
2022/05/04 09:14:46;;;;;;;8.18;2.40;;;;;;;;;;5076484;28;20037;-82
2022/05/04 09:17:15;;;;;;;7.65;1.90;;;;;;;;;;5082714;28;20040;-81
2022/05/04 09:22:41;;;;;;;5.15;1.95;;;;;;;;;;5078820;28;20071;-82
2022/05/04 09:25:16;;;;;;;8.52;2.20;;;;;;;;;;5065702;28;20119;-82
2022/05/04 09:27:42;;;;;;;8.52;2.22;;;;;;;;;;5081369;28;20520;-81
2022/05/04 09:30:08;;;;;;;7.28;2.10;;;;;;;;;;5084365;28;20131;-81
2022/05/04 09:32:38;;;;;;;7.20;2.00;;;;;;;;;;5087819;28;20071;-81
2022/05/04 09:35:05;;;;;;;7.43;2.17;;;;;;;;;;5068412;28;20540;-81
2022/05/04 09:45:56;;;;;;;8.02;2.20;;;;;;;;;;5077073;28;20072;-83
2022/05/04 09:48:35;;;;;;;7.95;2.10;;;;;;;;;;5078570;28;20075;-82
2022/05/04 09:51:05;;;;;;;8.57;2.30;;;;;;;;;;5077194;28;20075;-82
2022/05/04 09:53:32;;;;;;;7.15;2.00;;;;;;;;;;5077943;28;20073;-81
2022/05/04 09:55:59;;;;;;;5.50;1.83;;;;;;;;;;5090624;28;20040;-81
2022/05/04 09:58:28;;;;;;;5.55;1.90;;;;;;;;;;5082796;28;20097;-83
2022/05/04 10:00:55;;;;;;;7.30;2.13;;;;;;;;;;5062640;28;20032;-81
2022/05/04 10:03:21;;;;;;;8.90;1.95;;;;;;;;;;5079330;28;20055;-81
2022/05/04 10:05:48;;;;;;;7.22;2.13;;;;;;;;;;5073753;28;20044;-81
2022/05/04 10:08:15;;;;;;;8.63;2.28;;;;;;;;;;5076606;28;20052;-80
2022/05/04 10:10:41;;;;;;;7.63;2.25;;;;;;;;;;5078729;28;20036;-81
2022/05/04 10:13:08;;;;;;;7.07;2.17;;;;;;;;;;5084073;28;20040;-81
2022/05/04 10:15:36;;;;;;;8.52;2.30;;;;;;;;;;5081617;28;20480;-80
2022/05/04 10:18:14;;;;;;;8.98;2.25;;;;;;;;;;5084604;28;20037;-80
2022/05/04 10:20:45;;;;;;;7.68;1.80;;;;;;;;;;5074577;28;20044;-82
2022/05/04 10:23:23;;;;;;;10.13;2.25;;;;;;;;;;5081376;28;20032;-81
2022/05/04 10:25:53;;;;;;;6.75;2.42;;;;;;;;;;5070416;28;20115;-82
2022/05/04 10:28:19;;;;;;;6.97;2.35;;;;;;;;;;5075027;28;20077;-81
2022/05/04 10:30:55;;;;;;;7.65;2.72;;;;;;;;;;5076300;28;20599;-81
2022/05/04 10:33:35;;;;;;;7.65;2.40;;;;;;;;;;5077888;28;20038;-81
2022/05/04 10:36:17;;;;;;;10.15;2.53;;;;;;;;;;5080047;28;20047;-81
2022/05/04 10:38:44;;;;;;;6.75;2.63;;;;;;;;;;5075332;28;20480;-81
2022/05/04 10:41:11;;;;;;;6.38;2.38;;;;;;;;;;5077023;28;20048;-81
2022/05/04 10:43:50;;;;;;;6.53;2.38;;;;;;;;;;5082469;28;20041;-81
2022/05/04 10:46:23;;;;;;;9.05;2.42;;;;;;;;;;5077770;28;20040;-81
2022/05/04 10:48:55;;;;;;;9.20;2.50;;;;;;;;;;5075289;28;20044;-81
2022/05/04 10:51:26;;;;;;;6.68;2.30;;;;;;;;;;5076220;28;20041;-80
2022/05/04 10:53:53;;;;;;;7.43;2.45;;;;;;;;;;5069516;28;20037;-79
2022/05/04 10:56:24;;;;;;;4.43;2.00;;;;;;;;;;5091258;28;20040;-79
2022/05/04 10:58:50;;;;;;;7.00;2.28;;;;;;;;;;5052886;28;20040;-79
2022/05/04 11:01:21;;;;;;;7.30;2.47;;;;;;;;;;5069533;28;20044;-79
2022/05/04 11:03:57;;;;;;;9.00;2.95;;;;;;;;;;5068602;28;20047;-79
2022/05/04 11:06:23;;;;;;;7.40;2.65;;;;;;;;;;5076244;28;20369;-79
2022/05/04 11:08:50;;;;;;;6.68;2.40;;;;;;;;;;5063386;28;20032;-78
2022/05/04 11:11:16;;;;;;;8.88;2.60;;;;;;;;;;5089316;28;20036;-79
2022/05/04 11:13:45;;;;;;;7.20;2.30;;;;;;;;;;5070504;28;20498;-79
2022/05/04 11:16:11;;;;;;;9.20;2.30;;;;;;;;;;5076456;28;20040;-79
2022/05/04 11:18:38;;;;;;;7.97;2.58;;;;;;;;;;5071140;28;20113;-79
2022/05/04 11:21:10;;;;;;;7.57;2.40;;;;;;;;;;5066331;28;20182;-79
2022/05/04 11:23:37;;;;;;;8.88;2.90;;;;;;;;;;5072579;28;20044;-80
2022/05/04 11:26:03;;;;;;;5.68;2.50;;;;;;;;;;5078185;28;20083;-79
2022/05/04 11:28:30;;;;;;;8.38;2.70;;;;;;;;;;5068008;28;20071;-79
2022/05/04 11:30:56;;;;;;;9.85;2.97;;;;;;;;;;5054259;28;20045;-79
2022/05/04 11:33:22;;;;;;;10.32;3.13;;;;;;;;;;5067916;28;20439;-81
2022/05/04 11:35:55;;;;;;;6.70;3.03;;;;;;;;;;5050746;28;20072;-79
2022/05/04 11:38:21;;;;;;;7.93;2.75;;;;;;;;;;5060129;28;20055;-79
2022/05/04 11:40:49;;;;;;;8.27;3.13;;;;;;;;;;5086462;28;20044;-79
2022/05/04 11:43:42;;;;;;;7.88;2.78;;;;;;;;;;5078105;28;20650;-79
2022/05/04 11:46:12;;;;;;;7.15;3.05;;;;;;;;;;5070662;28;20390;-80
2022/05/04 11:48:38;;;;;;;8.50;2.95;;;;;;;;;;5071691;28;20488;-80
2022/05/04 11:51:05;;;;;;;6.32;3.08;;;;;;;;;;5079342;28;20119;-79
2022/05/04 11:53:31;;;;;;;9.32;3.40;;;;;;;;;;5049496;28;20102;-79
2022/05/04 11:56:03;;;;;;;9.20;3.15;;;;;;;;;;5064489;28;20051;-79
2022/05/04 11:58:29;;;;;;;7.40;3.28;;;;;;;;;;5062460;28;20135;-80
2022/05/04 12:00:56;;;;;;;6.70;3.15;;;;;;;;;;5046196;28;20040;-80
2022/05/04 12:03:23;;;;;;;7.47;3.45;;;;;;;;;;5061268;28;20480;-79
2022/05/04 12:05:50;;;;;;;8.30;3.20;;;;;;;;;;5074192;28;20037;-80
2022/05/04 12:08:18;;;;;;;7.75;3.35;;;;;;;;;;5075938;28;20051;-79
2022/05/04 12:10:44;;;;;;;8.80;3.47;;;;;;;;;;5069135;28;20048;-79
2022/05/04 12:13:10;;;;;;;9.55;3.50;;;;;;;;;;5077205;28;20040;-79
2022/05/04 12:15:37;;;;;;;10.68;3.92;;;;;;;;;;5051517;28;20044;-79
2022/05/04 12:18:05;;;;;;;11.07;3.20;;;;;;;;;;5069523;28;20959;-79
2022/05/04 12:20:34;;;;;;;7.88;3.33;;;;;;;;;;5052706;28;20048;-79
2022/05/04 12:23:01;;;;;;;9.60;3.38;;;;;;;;;;5074038;28;20041;-79
2022/05/04 12:25:28;;;;;;;5.38;3.00;;;;;;;;;;5064474;28;20041;-79
2022/05/04 12:27:55;;;;;;;12.05;3.60;;;;;;;;;;5050698;28;20036;-78
2022/05/04 12:33:10;;;;;;;7.85;3.50;;;;;;;;;;5068513;28;20048;-79
2022/05/04 12:35:36;;;;;;;7.00;3.13;;;;;;;;;;5067131;28;20043;-79
2022/05/04 12:38:03;;;;;;;8.43;3.35;;;;;;;;;;5066668;28;20032;-80
2022/05/04 12:40:30;;;;;;;8.32;3.67;;;;;;;;;;5047991;28;20135;-79
2022/05/04 12:42:57;;;;;;;8.95;3.50;;;;;;;;;;5071946;28;20084;-79
2022/05/04 12:45:24;;;;;;;8.00;3.90;;;;;;;;;;5051188;28;20036;-80
2022/05/04 12:47:50;;;;;;;7.75;3.38;;;;;;;;;;5066556;28;20090;-80
2022/05/04 12:50:17;;;;;;;7.25;3.10;;;;;;;;;;5067583;28;20396;-80
2022/05/04 12:52:43;;;;;;;8.95;3.45;;;;;;;;;;5039652;28;20035;-81
2022/05/04 12:55:09;;;;;;;11.82;3.40;;;;;;;;;;5057127;28;20036;-79
2022/05/04 12:57:35;;;;;;;8.18;3.20;;;;;;;;;;5065892;28;20173;-80
2022/05/04 13:00:01;;;;;;;7.43;3.35;;;;;;;;;;5066331;28;20040;-80
2022/05/04 13:02:27;;;;;;;7.30;3.45;;;;;;;;;;5070512;28;20032;-79
2022/05/04 13:04:53;;;;;;;9.02;3.55;;;;;;;;;;5079418;28;20034;-80
2022/05/04 13:07:19;;;;;;;7.68;3.47;;;;;;;;;;5066490;28;20041;-79
2022/05/04 13:09:46;;;;;;;7.15;3.38;;;;;;;;;;5056669;28;20044;-80
2022/05/04 13:12:13;;;;;;;8.93;3.45;;;;;;;;;;5066854;28;20440;-80
2022/05/04 13:14:39;;;;;;;8.18;3.67;;;;;;;;;;5052526;28;20040;-79
2022/05/04 13:17:05;;;;;;;7.65;3.60;;;;;;;;;;5065618;28;20040;-80
2022/05/04 13:19:32;;;;;;;7.90;3.42;;;;;;;;;;5052486;28;20037;-80
2022/05/04 13:21:58;;;;;;;7.30;3.25;;;;;;;;;;5033674;28;20049;-80
2022/05/04 13:24:24;;;;;;;6.57;3.38;;;;;;;;;;5067799;28;20033;-80
2022/05/04 13:26:50;;;;;;;9.68;3.70;;;;;;;;;;5067234;28;20659;-80
2022/05/04 13:29:16;;;;;;;8.35;4.22;;;;;;;;;;5066118;28;20044;-80
2022/05/04 13:31:42;;;;;;;7.53;3.70;;;;;;;;;;5050906;28;20044;-80
2022/05/04 13:34:08;;;;;;;7.75;4.10;;;;;;;;;;5074097;28;20098;-80
2022/05/04 13:36:34;;;;;;;8.10;3.47;;;;;;;;;;5065142;28;20045;-80
2022/05/04 13:39:01;;;;;;;7.20;3.40;;;;;;;;;;5068536;28;20078;-80
2022/05/04 13:41:27;;;;;;;8.02;3.70;;;;;;;;;;5077139;28;20045;-80
2022/05/04 13:43:54;;;;;;;11.15;4.20;;;;;;;;;;5076329;28;20986;-80
2022/05/04 13:46:20;;;;;;;10.35;4.03;;;;;;;;;;5066235;28;20040;-80
2022/05/04 13:48:46;;;;;;;10.45;3.78;;;;;;;;;;5066850;28;20040;-79
2022/05/04 13:53:57;;;;;;;10.27;4.25;;;;;;;;;;5088984;28;20066;-79
2022/05/04 13:56:24;;;;;;;12.30;4.13;;;;;;;;;;5066759;28;20044;-79
2022/05/04 13:58:50;;;;;;;7.60;3.53;;;;;;;;;;5069568;28;20089;-80
2022/05/04 14:01:16;;;;;;;7.63;3.80;;;;;;;;;;5092325;28;20028;-80
2022/05/04 14:03:42;;;;;;;8.95;4.43;;;;;;;;;;5083389;28;20036;-82
2022/05/04 14:06:08;;;;;;;7.18;3.90;;;;;;;;;;5043688;28;20067;-82
2022/05/04 14:08:34;;;;;;;7.38;3.80;;;;;;;;;;5066605;28;20371;-82
2022/05/04 14:11:01;;;;;;;14.25;4.00;;;;;;;;;;5080731;28;20048;-82
2022/05/04 14:13:27;;;;;;;7.53;3.47;;;;;;;;;;5078677;28;20072;-83
2022/05/04 14:15:56;;;;;;;8.98;4.20;;;;;;;;;;5079182;28;20411;-83
2022/05/04 14:18:22;;;;;;;8.27;3.88;;;;;;;;;;5058278;28;20478;-83
2022/05/04 14:20:49;;;;;;;8.50;4.13;;;;;;;;;;5079393;28;20036;-82
2022/05/04 14:23:15;;;;;;;10.45;4.00;;;;;;;;;;5079170;28;20032;-84
2022/05/04 14:25:42;;;;;;;9.73;4.10;;;;;;;;;;5068281;28;20060;-84
2022/05/04 14:28:08;;;;;;;10.00;4.10;;;;;;;;;;5077401;28;20499;-85
2022/05/04 14:30:34;;;;;;;10.10;4.03;;;;;;;;;;5072900;28;20051;-85
2022/05/04 14:33:01;;;;;;;10.35;4.40;;;;;;;;;;5073716;28;20052;-84
2022/05/04 14:35:27;;;;;;;6.82;4.07;;;;;;;;;;5076444;28;20036;-85
2022/05/04 14:37:53;;;;;;;8.38;3.97;;;;;;;;;;5068719;28;20052;-85
2022/05/04 14:40:20;;;;;;;10.45;4.50;;;;;;;;;;5056104;28;20365;-84
2022/05/04 14:42:47;;;;;;;9.68;4.28;;;;;;;;;;5072951;28;20451;-85
2022/05/04 14:45:13;;;;;;;10.43;3.80;;;;;;;;;;5069922;28;20041;-85
2022/05/04 14:47:39;;;;;;;8.40;4.53;;;;;;;;;;5070375;28;20032;-85
2022/05/04 14:50:06;;;;;;;9.27;4.10;;;;;;;;;;5073656;28;20048;-84
2022/05/04 14:52:32;;;;;;;8.57;3.80;;;;;;;;;;5073788;28;20551;-84
2022/05/04 14:54:58;;;;;;;11.55;4.05;;;;;;;;;;5052922;28;20033;-86
2022/05/04 14:57:24;;;;;;;7.80;4.13;;;;;;;;;;5077897;28;20044;-84
2022/05/04 14:59:50;;;;;;;11.23;4.03;;;;;;;;;;5079041;28;20035;-84
2022/05/04 15:02:16;;;;;;;12.60;4.57;;;;;;;;;;5083167;28;20123;-85
2022/05/04 15:07:27;;;;;;;14.50;4.50;;;;;;;;;;5095909;28;20516;-84
2022/05/04 15:09:53;;;;;;;10.63;4.32;;;;;;;;;;5077094;28;20126;-84
2022/05/04 15:12:19;;;;;;;9.93;4.65;;;;;;;;;;5078367;28;20131;-84
2022/05/04 15:14:45;;;;;;;9.77;4.35;;;;;;;;;;5063172;28;20036;-84
2022/05/04 15:17:11;;;;;;;10.32;4.72;;;;;;;;;;5061998;28;20511;-84
2022/05/04 15:19:37;;;;;;;10.88;4.93;;;;;;;;;;5079065;28;20089;-84